Time;durP1;ratioP1;P1;durP2;ratioP2;P2;SDS_P1;SDS_P2;PMS_P1;PMS_P2;Temp;Humidity;BMP_temperature;BMP_pressure;BME280_temperature;BME280_humidity;BME280_pressure;Samples;Min_cycle;Max_cycle;Signal;HPM_P1;HPM_P2
2021/11/15 00:00:09;;;;;;;;;;;9.40;99.90;9.90;99672.00;;;;344933;28;83411;-91
2021/11/15 00:00:21;;;;;;;;;;;9.40;99.90;9.90;99667.00;;;;346922;27;95892;-91
2021/11/15 00:00:34;;;;;;;;;;;9.50;99.90;9.90;99673.00;;;;347684;28;82488;-91
2021/11/15 00:00:51;;;;;;;;;;;9.40;99.90;9.90;99677.00;;;;345545;28;96421;-91
2021/11/15 00:01:05;;;;;;;;;;;9.40;99.90;9.80;99678.00;;;;347531;28;82616;-91
2021/11/15 00:01:17;;;;;;;;;;;9.50;99.90;9.80;99674.00;;;;345720;28;95296;-91
2021/11/15 00:01:30;;;;;;;;;;;9.40;99.90;9.80;99674.00;;;;346028;28;83432;-91
2021/11/15 00:01:45;;;;;;;;;;;9.40;99.90;9.80;99673.00;;;;348202;27;96854;-91
2021/11/15 00:01:57;;;;;;;;;;;9.40;99.90;9.80;99673.00;;;;346315;28;83432;-91
2021/11/15 00:02:10;;;;;;;;;;;9.40;99.90;9.80;99666.00;;;;345391;28;96947;-92
2021/11/15 00:02:22;;;;;;;;;;;9.40;99.90;9.80;99666.00;;;;347440;27;83528;-91
2021/11/15 00:02:34;;;;;;;;;;;9.40;99.90;9.80;99670.00;;;;346986;28;97371;-92
2021/11/15 00:02:46;;;;;;;;;;;9.40;99.90;9.80;99670.00;;;;346375;28;83173;-91
2021/11/15 00:02:59;;;;;;;;;;;9.40;99.90;9.80;99676.00;;;;346934;28;95626;-91
2021/11/15 00:03:12;;;;;;;;;;;9.40;99.90;9.80;99674.00;;;;347558;27;83370;-91
2021/11/15 00:03:24;;;;;;;;;;;9.40;99.90;9.80;99671.00;;;;344255;28;96339;-91
2021/11/15 00:03:36;;;;;;;;;;;9.40;99.90;9.80;99670.00;;;;346399;28;83141;-91
2021/11/15 00:03:48;;;;;;;;;;;9.40;99.90;9.90;99670.00;;;;346649;28;95783;-91
2021/11/15 00:04:00;;;;;;;;;;;9.40;99.90;9.80;99665.00;;;;346401;28;82544;-91
2021/11/15 00:04:13;;;;;;;;;;;9.40;99.90;9.70;99659.00;;;;345489;28;95751;-91
2021/11/15 00:04:25;;;;;;;;;;;9.40;99.90;9.70;99666.00;;;;346512;28;82451;-91
2021/11/15 00:04:37;;;;;;;;;;;9.40;99.90;9.70;99671.00;;;;346944;28;97001;-92
2021/11/15 00:04:49;;;;;;;;;;;9.40;99.90;9.80;99658.00;;;;349163;27;82500;-91
2021/11/15 00:05:01;;;;;;;;;;;9.40;99.90;9.80;99670.00;;;;343920;28;96615;-92
2021/11/15 00:05:13;;;;;;;;;;;9.40;99.90;9.80;99675.00;;;;347586;28;83404;-91
2021/11/15 00:05:25;;;;;;;;;;;9.40;99.90;9.80;99670.00;;;;346990;28;96163;-91
2021/11/15 00:05:37;;;;;;;;;;;9.40;99.90;9.70;99666.00;;;;346201;28;83436;-91
2021/11/15 00:05:48;;;;;;;;;;;9.40;99.90;9.80;99667.00;;;;346901;27;95896;-92
2021/11/15 00:06:00;;;;;;;;;;;9.40;99.90;9.80;99672.00;;;;347639;28;83474;-90
2021/11/15 00:06:12;;;;;;;;;;;9.40;99.90;9.80;99670.00;;;;345584;28;95260;-91
2021/11/15 00:06:24;;;;;;;;;;;9.40;99.90;9.80;99671.00;;;;343357;28;82497;-91
2021/11/15 00:06:36;;;;;;;;;;;9.40;99.90;9.80;99663.00;;;;346751;28;95372;-91
2021/11/15 00:06:48;;;;;;;;;;;9.40;99.90;9.80;99667.00;;;;346185;28;83340;-91
2021/11/15 00:07:01;;;;;;;;;;;9.40;99.90;9.80;99664.00;;;;346577;28;97187;-91
2021/11/15 00:07:12;;;;;;;;;;;9.40;99.90;9.80;99664.00;;;;347530;28;82437;-91
2021/11/15 00:07:24;;;;;;;;;;;9.40;99.90;9.80;99661.00;;;;346824;28;95717;-91
2021/11/15 00:07:36;;;;;;;;;;;9.40;99.90;9.90;99662.00;;;;347512;28;83338;-91
2021/11/15 00:07:48;;;;;;;;;;;9.40;99.90;9.90;99662.00;;;;348196;27;96896;-91
2021/11/15 00:08:00;;;;;;;;;;;9.40;99.90;9.80;99668.00;;;;344736;28;83366;-92
2021/11/15 00:08:11;;;;;;;;;;;9.40;99.90;9.80;99654.00;;;;344027;28;95953;-92
2021/11/15 00:08:25;;;;;;;;;;;9.40;99.90;9.80;99659.00;;;;346097;28;83416;-90
2021/11/15 00:08:37;;;;;;;;;;;9.40;99.90;9.80;99662.00;;;;345358;28;96604;-91
2021/11/15 00:08:49;;;;;;;;;;;9.40;99.90;9.80;99667.00;;;;347563;28;82426;-91
2021/11/15 00:09:01;;;;;;;;;;;9.40;99.90;9.80;99662.00;;;;346530;27;95898;-91
2021/11/15 00:09:14;;;;;;;;;;;9.40;99.90;9.70;99656.00;;;;347582;28;83405;-91
2021/11/15 00:09:25;;;;;;;;;;;9.40;99.90;9.70;99653.00;;;;345466;28;95892;-91
2021/11/15 00:09:37;;;;;;;;;;;9.40;99.90;9.70;99660.00;;;;347567;28;83163;-91
2021/11/15 00:09:49;;;;;;;;;;;9.40;99.90;9.70;99653.00;;;;344043;28;95184;-91
2021/11/15 00:10:03;;;;;;;;;;;9.40;99.90;9.70;99658.00;;;;346200;28;83428;-92
2021/11/15 00:10:16;;;;;;;;;;;9.40;99.90;9.80;99656.00;;;;346763;28;97509;-91
2021/11/15 00:10:27;;;;;;;;;;;9.40;99.90;9.80;99657.00;;;;347543;27;82527;-91
2021/11/15 00:10:40;;;;;;;;;;;9.40;99.90;9.80;99660.00;;;;343957;28;96541;-91
2021/11/15 00:10:52;;;;;;;;;;;9.40;99.90;9.80;99660.00;;;;347571;28;83369;-91
2021/11/15 00:11:04;;;;;;;;;;;9.40;99.90;9.90;99656.00;;;;346712;27;96998;-91
2021/11/15 00:11:16;;;;;;;;;;;9.40;99.90;9.90;99654.00;;;;347552;28;82364;-91
2021/11/15 00:11:30;;;;;;;;;;;9.40;99.90;9.80;99665.00;;;;345417;28;94977;-91
2021/11/15 00:11:41;;;;;;;;;;;9.40;99.90;9.70;99660.00;;;;347533;28;82516;-92
2021/11/15 00:11:53;;;;;;;;;;;9.40;99.90;9.60;99658.00;;;;343965;28;95267;-91
2021/11/15 00:12:05;;;;;;;;;;;9.40;99.90;9.70;99659.00;;;;343253;28;82500;-92
2021/11/15 00:12:17;;;;;;;;;;;9.40;99.90;9.70;99661.00;;;;345296;28;96062;-91
2021/11/15 00:12:29;;;;;;;;;;;9.30;99.90;9.70;99666.00;;;;346778;28;83568;-92
2021/11/15 00:12:45;;;;;;;;;;;9.30;99.90;9.70;99652.00;;;;345364;28;96977;-91
2021/11/15 00:12:56;;;;;;;;;;;9.40;99.90;9.60;99664.00;;;;346121;28;83308;-91
2021/11/15 00:13:09;;;;;;;;;;;9.30;99.90;9.70;99664.00;;;;347974;27;96325;-91
2021/11/15 00:13:20;;;;;;;;;;;9.30;99.90;9.70;99654.00;;;;346118;28;83280;-91
2021/11/15 00:13:33;;;;;;;;;;;9.30;99.90;9.80;99667.00;;;;348208;27;95567;-92
2021/11/15 00:13:44;;;;;;;;;;;9.30;99.90;9.80;99666.00;;;;347549;28;82391;-91
2021/11/15 00:13:56;;;;;;;;;;;9.40;99.90;9.70;99666.00;;;;345368;28;97111;-91
2021/11/15 00:14:08;;;;;;;;;;;9.30;99.90;9.70;99660.00;;;;346092;28;82593;-91
2021/11/15 00:14:20;;;;;;;;;;;9.30;99.90;9.80;99660.00;;;;345276;28;95331;-91
2021/11/15 00:14:32;;;;;;;;;;;9.30;99.90;9.80;99664.00;;;;345725;28;83563;-91
2021/11/15 00:14:44;;;;;;;;;;;9.30;99.90;9.80;99667.00;;;;345397;28;96581;-91
2021/11/15 00:14:55;;;;;;;;;;;9.30;99.90;9.80;99661.00;;;;345913;28;83328;-91
2021/11/15 00:15:08;;;;;;;;;;;9.30;99.90;9.80;99660.00;;;;346678;28;95553;-91
2021/11/15 00:15:20;;;;;;;;;;;9.30;99.90;9.80;99661.00;;;;346193;28;83304;-91
2021/11/15 00:15:33;;;;;;;;;;;9.30;99.90;9.90;99660.00;;;;346165;28;92369;-91
2021/11/15 00:15:44;;;;;;;;;;;9.40;99.90;9.90;99665.00;;;;346038;28;83457;-91
2021/11/15 00:15:56;;;;;;;;;;;9.40;99.90;9.90;99657.00;;;;345225;28;95622;-91
2021/11/15 00:16:08;;;;;;;;;;;9.40;99.90;9.90;99650.00;;;;347485;28;83296;-91
2021/11/15 00:16:20;;;;;;;;;;;9.40;99.90;9.90;99655.00;;;;345280;28;96871;-91
2021/11/15 00:16:32;;;;;;;;;;;9.40;99.90;9.90;99659.00;;;;344599;28;83465;-91
2021/11/15 00:16:44;;;;;;;;;;;9.40;99.90;9.90;99650.00;;;;345301;28;95783;-92
2021/11/15 00:16:56;;;;;;;;;;;9.40;99.90;9.80;99654.00;;;;345788;28;83540;-91
2021/11/15 00:17:07;;;;;;;;;;;9.40;99.90;9.80;99659.00;;;;343848;28;96019;-91
2021/11/15 00:17:19;;;;;;;;;;;9.40;99.90;9.80;99665.00;;;;343842;28;82477;-91
2021/11/15 00:17:31;;;;;;;;;;;9.40;99.90;9.80;99665.00;;;;343489;28;96616;-92
2021/11/15 00:17:43;;;;;;;;;;;9.40;99.90;9.90;99660.00;;;;347378;28;83443;-92
2021/11/15 00:17:57;;;;;;;;;;;9.40;99.90;9.90;99659.00;;;;343793;28;96848;-91
2021/11/15 00:18:09;;;;;;;;;;;9.40;99.90;9.90;99666.00;;;;344827;28;82452;-92
2021/11/15 00:18:21;;;;;;;;;;;9.40;99.90;9.90;99666.00;;;;343861;28;95559;-91
2021/11/15 00:18:33;;;;;;;;;;;9.40;99.90;9.90;99667.00;;;;345593;28;83424;-91
2021/11/15 00:18:44;;;;;;;;;;;9.40;99.90;9.90;99666.00;;;;345318;28;97441;-92
2021/11/15 00:18:56;;;;;;;;;;;9.40;99.90;9.80;99660.00;;;;347468;28;83472;-91
2021/11/15 00:19:08;;;;;;;;;;;9.40;99.90;9.80;99667.00;;;;343790;28;96880;-91
2021/11/15 00:19:20;;;;;;;;;;;9.40;99.90;9.80;99667.00;;;;347549;28;83298;-91
2021/11/15 00:19:32;;;;;;;;;;;9.40;99.90;9.80;99666.00;;;;343964;28;94134;-91
2021/11/15 00:19:43;;;;;;;;;;;9.40;99.90;9.80;99665.00;;;;344679;28;83470;-91
2021/11/15 00:19:56;;;;;;;;;;;9.40;99.90;9.80;99663.00;;;;345350;28;97022;-91
2021/11/15 00:20:08;;;;;;;;;;;9.40;99.90;9.80;99688.00;;;;347468;28;83359;-91
2021/11/15 00:20:20;;;;;;;;;;;9.40;99.90;9.80;99671.00;;;;343948;28;93070;-91
2021/11/15 00:20:32;;;;;;;;;;;9.40;99.90;9.70;99664.00;;;;346873;28;85038;-91
2021/11/15 00:20:44;;;;;;;;;;;9.40;99.90;9.80;99664.00;;;;345264;28;95784;-91
2021/11/15 00:20:56;;;;;;;;;;;9.40;99.90;9.80;99671.00;;;;346043;28;82389;-91
2021/11/15 00:21:07;;;;;;;;;;;9.40;99.90;9.80;99671.00;;;;345565;28;96068;-92
2021/11/15 00:21:19;;;;;;;;;;;9.40;99.90;9.90;99670.00;;;;347561;28;82566;-91
2021/11/15 00:21:31;;;;;;;;;;;9.40;99.90;9.90;99671.00;;;;345021;28;94979;-91
2021/11/15 00:21:43;;;;;;;;;;;9.40;99.90;9.90;99672.00;;;;346022;28;83533;-91
2021/11/15 00:21:55;;;;;;;;;;;9.40;99.90;9.90;99666.00;;;;346701;28;97050;-91
2021/11/15 00:22:06;;;;;;;;;;;9.40;99.90;9.80;99678.00;;;;344685;28;83213;-91
2021/11/15 00:22:18;;;;;;;;;;;9.40;99.90;9.90;99675.00;;;;346457;28;96896;-91
2021/11/15 00:22:30;;;;;;;;;;;9.40;99.90;9.90;99675.00;;;;344607;28;82676;-91
2021/11/15 00:22:42;;;;;;;;;;;9.40;99.90;9.90;99672.00;;;;343959;28;96751;-92
2021/11/15 00:22:54;;;;;;;;;;;9.40;99.90;9.80;99671.00;;;;347580;28;82448;-91
2021/11/15 00:23:06;;;;;;;;;;;9.40;99.90;9.90;99670.00;;;;346692;28;95435;-91
2021/11/15 00:23:17;;;;;;;;;;;9.40;99.90;9.90;99677.00;;;;344618;28;83553;-91
2021/11/15 00:23:29;;;;;;;;;;;9.40;99.90;9.90;99672.00;;;;347685;27;95753;-91
2021/11/15 00:23:41;;;;;;;;;;;9.40;99.90;9.90;99674.00;;;;345890;28;83541;-91
2021/11/15 00:23:53;;;;;;;;;;;9.40;99.90;9.90;99669.00;;;;345521;28;95529;-91
2021/11/15 00:24:05;;;;;;;;;;;9.40;99.90;9.90;99670.00;;;;346119;28;83532;-90
2021/11/15 00:24:17;;;;;;;;;;;9.40;99.90;9.90;99666.00;;;;345273;28;96644;-92
2021/11/15 00:24:28;;;;;;;;;;;9.40;99.90;9.90;99665.00;;;;347937;27;82564;-91
2021/11/15 00:24:40;;;;;;;;;;;9.40;99.90;9.90;99671.00;;;;346683;28;95981;-91
2021/11/15 00:24:52;;;;;;;;;;;9.40;99.90;9.90;99666.00;;;;346067;28;83368;-91
2021/11/15 00:25:04;;;;;;;;;;;9.50;99.90;9.90;99668.00;;;;343684;28;96397;-91
2021/11/15 00:25:16;;;;;;;;;;;9.50;99.90;10.00;99667.00;;;;345957;28;83291;-91
2021/11/15 00:25:28;;;;;;;;;;;9.50;99.90;9.90;99671.00;;;;348097;27;95380;-91
2021/11/15 00:25:40;;;;;;;;;;;9.50;99.90;10.00;99671.00;;;;347431;28;83501;-91
2021/11/15 00:25:51;;;;;;;;;;;9.50;99.90;10.00;99669.00;;;;345319;28;96583;-91
2021/11/15 00:26:03;;;;;;;;;;;9.50;99.90;10.00;99678.00;;;;347591;28;82342;-91
2021/11/15 00:26:15;;;;;;;;;;;9.50;99.90;10.00;99669.00;;;;348198;27;93094;-91
2021/11/15 00:26:27;;;;;;;;;;;9.50;99.90;9.90;99663.00;;;;346570;28;83459;-91
2021/11/15 00:26:39;;;;;;;;;;;9.50;99.90;10.00;99665.00;;;;346650;28;96313;-92
2021/11/15 00:26:50;;;;;;;;;;;9.50;99.90;10.00;99671.00;;;;344765;28;83324;-91
2021/11/15 00:27:03;;;;;;;;;;;9.50;99.90;10.00;99665.00;;;;345228;28;95938;-92
2021/11/15 00:27:15;;;;;;;;;;;9.50;99.90;10.00;99673.00;;;;346113;28;83382;-91
2021/11/15 00:27:27;;;;;;;;;;;9.50;99.90;10.00;99671.00;;;;345249;28;95685;-91
2021/11/15 00:27:39;;;;;;;;;;;9.50;99.90;9.90;99677.00;;;;346005;28;82528;-91
2021/11/15 00:27:50;;;;;;;;;;;9.50;99.90;9.90;99677.00;;;;346785;28;95922;-92
2021/11/15 00:28:02;;;;;;;;;;;9.50;99.90;9.90;99674.00;;;;344776;28;83250;-91
2021/11/15 00:28:14;;;;;;;;;;;9.50;99.90;9.90;99671.00;;;;344001;28;95669;-91
2021/11/15 00:28:26;;;;;;;;;;;9.50;99.90;9.90;99666.00;;;;346136;28;82501;-91
2021/11/15 00:28:38;;;;;;;;;;;9.50;99.90;10.00;99677.00;;;;346670;28;95668;-92
2021/11/15 00:28:50;;;;;;;;;;;9.50;99.90;10.00;99672.00;;;;347200;28;83330;-91
2021/11/15 00:29:02;;;;;;;;;;;9.50;99.90;10.00;99672.00;;;;345271;28;96737;-91
2021/11/15 00:29:14;;;;;;;;;;;9.50;99.90;10.00;99673.00;;;;346147;28;83390;-91
2021/11/15 00:29:26;;;;;;;;;;;9.50;99.90;10.00;99675.00;;;;349172;27;95283;-91
2021/11/15 00:29:38;;;;;;;;;;;9.50;99.90;10.00;99674.00;;;;347341;27;83465;-91
2021/11/15 00:29:49;;;;;;;;;;;9.50;99.90;9.90;99674.00;;;;346754;27;95144;-91
2021/11/15 00:30:02;;;;;;;;;;;9.50;99.90;9.90;99669.00;;;;347300;28;83463;-91
2021/11/15 00:30:14;;;;;;;;;;;9.50;99.90;9.90;99663.00;;;;345355;28;95519;-91
2021/11/15 00:30:26;;;;;;;;;;;9.50;99.90;9.90;99667.00;;;;346199;28;83536;-90
2021/11/15 00:30:38;;;;;;;;;;;9.50;99.90;10.00;99673.00;;;;345314;28;97319;-92
2021/11/15 00:30:50;;;;;;;;;;;9.50;99.90;10.00;99681.00;;;;347420;28;83419;-91
2021/11/15 00:31:02;;;;;;;;;;;9.50;99.90;9.90;99673.00;;;;343902;28;95308;-91
2021/11/15 00:31:14;;;;;;;;;;;9.50;99.90;9.90;99667.00;;;;346087;28;83441;-91
2021/11/15 00:31:26;;;;;;;;;;;9.50;99.90;10.00;99674.00;;;;346792;28;94449;-91
2021/11/15 00:31:38;;;;;;;;;;;9.50;99.90;9.90;99679.00;;;;348825;27;83406;-91
2021/11/15 00:31:50;;;;;;;;;;;9.50;99.90;9.90;99678.00;;;;348079;27;96774;-92
2021/11/15 00:32:02;;;;;;;;;;;9.50;99.90;9.90;99680.00;;;;347309;28;82487;-92
2021/11/15 00:32:14;;;;;;;;;;;9.50;99.90;9.80;99678.00;;;;346762;28;95441;-91
2021/11/15 00:32:27;;;;;;;;;;;9.50;99.90;9.80;99679.00;;;;344815;28;83490;-91
2021/11/15 00:32:39;;;;;;;;;;;9.50;99.90;9.80;99675.00;;;;345592;28;95305;-91
2021/11/15 00:32:50;;;;;;;;;;;9.50;99.90;9.90;99675.00;;;;346090;28;83301;-91
2021/11/15 00:33:02;;;;;;;;;;;9.50;99.90;9.90;99678.00;;;;345130;28;96758;-91
2021/11/15 00:33:14;;;;;;;;;;;9.50;99.90;9.90;99673.00;;;;348915;27;83275;-91
2021/11/15 00:33:26;;;;;;;;;;;9.50;99.90;9.90;99667.00;;;;344266;28;95586;-90
2021/11/15 00:33:38;;;;;;;;;;;9.50;99.90;9.90;99669.00;;;;347546;28;83277;-91
2021/11/15 00:33:50;;;;;;;;;;;9.50;99.90;9.90;99681.00;;;;348065;27;96856;-91
2021/11/15 00:34:02;;;;;;;;;;;9.50;99.90;9.90;99679.00;;;;348979;27;83276;-92
2021/11/15 00:34:14;;;;;;;;;;;9.50;99.90;10.00;99674.00;;;;346677;28;96155;-91
2021/11/15 00:34:26;;;;;;;;;;;9.50;99.90;10.00;99682.00;;;;345933;28;83540;-91
2021/11/15 00:34:38;;;;;;;;;;;9.50;99.90;10.00;99677.00;;;;345334;28;96711;-91
2021/11/15 00:34:49;;;;;;;;;;;9.50;99.90;10.00;99676.00;;;;348924;27;83305;-91
2021/11/15 00:35:01;;;;;;;;;;;9.50;99.90;10.00;99675.00;;;;345231;28;96318;-91
2021/11/15 00:35:13;;;;;;;;;;;9.50;99.90;9.90;99671.00;;;;347512;28;82420;-92
2021/11/15 00:35:25;;;;;;;;;;;9.50;99.90;9.90;99667.00;;;;348162;27;95817;-90
2021/11/15 00:35:37;;;;;;;;;;;9.50;99.90;9.90;99674.00;;;;346111;28;83407;-91
2021/11/15 00:35:48;;;;;;;;;;;9.50;99.90;9.90;99671.00;;;;346722;28;95782;-91
2021/11/15 00:36:00;;;;;;;;;;;9.50;99.90;9.90;99657.00;;;;346188;28;83336;-91
2021/11/15 00:36:12;;;;;;;;;;;9.50;99.90;9.90;99673.00;;;;346703;28;96460;-92
2021/11/15 00:36:24;;;;;;;;;;;9.50;99.90;9.90;99670.00;;;;348942;27;83391;-91
2021/11/15 00:36:36;;;;;;;;;;;9.50;99.90;9.80;99671.00;;;;348159;27;96388;-91
2021/11/15 00:36:47;;;;;;;;;;;9.50;99.90;9.90;99672.00;;;;347421;28;83585;-91
2021/11/15 00:36:59;;;;;;;;;;;9.50;99.90;9.80;99670.00;;;;346690;28;95907;-91
2021/11/15 00:37:11;;;;;;;;;;;9.50;99.90;9.80;99677.00;;;;347519;28;82471;-91
2021/11/15 00:37:23;;;;;;;;;;;9.50;99.90;9.90;99668.00;;;;346650;28;95549;-91
2021/11/15 00:37:35;;;;;;;;;;;9.50;99.90;9.90;99670.00;;;;347147;28;83448;-91
2021/11/15 00:37:46;;;;;;;;;;;9.50;99.90;9.90;99667.00;;;;345231;28;96729;-91
2021/11/15 00:37:58;;;;;;;;;;;9.50;99.90;9.80;99667.00;;;;347447;28;83469;-91
2021/11/15 00:38:10;;;;;;;;;;;9.50;99.90;9.80;99668.00;;;;349466;27;96699;-91
2021/11/15 00:38:22;;;;;;;;;;;9.50;99.90;9.70;99678.00;;;;346055;28;82601;-91
2021/11/15 00:38:34;;;;;;;;;;;9.50;99.90;9.60;99678.00;;;;347796;27;96652;-91
2021/11/15 00:38:45;;;;;;;;;;;9.40;99.90;9.70;99673.00;;;;348705;27;83478;-91
2021/11/15 00:38:57;;;;;;;;;;;9.40;99.90;9.70;99670.00;;;;346572;27;96226;-91
2021/11/15 00:39:09;;;;;;;;;;;9.40;99.90;9.70;99662.00;;;;347482;28;83374;-91
2021/11/15 00:39:21;;;;;;;;;;;9.40;99.90;9.70;99664.00;;;;346740;28;95906;-91
2021/11/15 00:39:33;;;;;;;;;;;9.40;99.90;9.70;99661.00;;;;347333;28;83123;-91
2021/11/15 00:39:45;;;;;;;;;;;9.40;99.90;9.70;99673.00;;;;345194;28;96087;-91
2021/11/15 00:39:58;;;;;;;;;;;9.40;99.90;9.60;99677.00;;;;345946;28;83312;-91
2021/11/15 00:40:12;;;;;;;;;;;9.40;99.90;9.70;99674.00;;;;345310;28;97184;-91
2021/11/15 00:40:24;;;;;;;;;;;9.40;99.90;9.80;99680.00;;;;348790;27;83533;-91
2021/11/15 00:40:36;;;;;;;;;;;9.40;99.90;9.80;99679.00;;;;348054;27;96389;-91
2021/11/15 00:40:48;;;;;;;;;;;9.40;99.90;9.70;99678.00;;;;347476;28;83439;-91
2021/11/15 00:41:00;;;;;;;;;;;9.40;99.90;9.70;99678.00;;;;346632;28;97179;-91
2021/11/15 00:41:12;;;;;;;;;;;9.40;99.90;9.60;99682.00;;;;347488;28;83397;-92
2021/11/15 00:41:24;;;;;;;;;;;9.40;99.90;9.60;99677.00;;;;346904;27;92350;-91
2021/11/15 00:41:36;;;;;;;;;;;9.40;99.90;9.70;99675.00;;;;346889;28;83609;-91
2021/11/15 00:41:47;;;;;;;;;;;9.30;99.90;9.70;99674.00;;;;343910;28;95450;-91
2021/11/15 00:41:59;;;;;;;;;;;9.30;99.90;9.70;99673.00;;;;347146;28;83532;-92
2021/11/15 00:42:11;;;;;;;;;;;9.30;99.90;9.80;99688.00;;;;345398;28;95496;-91
2021/11/15 00:42:23;;;;;;;;;;;9.30;99.90;9.70;99681.00;;;;348808;27;82363;-91
2021/11/15 00:42:35;;;;;;;;;;;9.30;99.90;9.80;99674.00;;;;345055;28;95961;-91
2021/11/15 00:42:47;;;;;;;;;;;9.30;99.90;9.70;99675.00;;;;347609;28;82464;-91
2021/11/15 00:42:59;;;;;;;;;;;9.30;99.90;9.50;99682.00;;;;345272;28;95712;-92
2021/11/15 00:43:11;;;;;;;;;;;9.30;99.90;9.60;99678.00;;;;347463;28;83278;-91
2021/11/15 00:43:23;;;;;;;;;;;9.30;99.90;9.70;99684.00;;;;346845;28;95270;-91
2021/11/15 00:43:35;;;;;;;;;;;9.30;99.90;9.60;99684.00;;;;345721;28;84184;-91
2021/11/15 00:43:47;;;;;;;;;;;9.30;99.90;9.60;99685.00;;;;346702;27;92777;-91
2021/11/15 00:43:58;;;;;;;;;;;9.30;99.90;9.70;99680.00;;;;344745;28;82506;-90
2021/11/15 00:44:10;;;;;;;;;;;9.30;99.90;9.60;99679.00;;;;345339;28;96304;-90
2021/11/15 00:44:22;;;;;;;;;;;9.30;99.90;9.60;99682.00;;;;347074;28;82560;-91
2021/11/15 00:44:34;;;;;;;;;;;9.30;99.90;9.70;99687.00;;;;345110;28;96128;-90
2021/11/15 00:44:46;;;;;;;;;;;9.30;99.90;9.70;99677.00;;;;343428;28;83326;-91
2021/11/15 00:44:58;;;;;;;;;;;9.30;99.90;9.70;99685.00;;;;345226;27;96638;-91
2021/11/15 00:45:11;;;;;;;;;;;9.30;99.90;9.60;99685.00;;;;347559;28;83441;-91
2021/11/15 00:45:23;;;;;;;;;;;9.30;99.90;9.70;99675.00;;;;345436;28;94278;-91
2021/11/15 00:45:34;;;;;;;;;;;9.30;99.90;9.70;99679.00;;;;348802;27;82502;-91
2021/11/15 00:45:46;;;;;;;;;;;9.30;99.90;9.60;99684.00;;;;346445;27;95707;-91
2021/11/15 00:45:58;;;;;;;;;;;9.30;99.90;9.60;99683.00;;;;344753;28;82580;-92
2021/11/15 00:46:10;;;;;;;;;;;9.30;99.90;9.60;99675.00;;;;345375;28;96402;-91
2021/11/15 00:46:21;;;;;;;;;;;9.30;99.90;9.70;99681.00;;;;347461;27;83422;-92
2021/11/15 00:46:33;;;;;;;;;;;9.30;99.90;9.70;99684.00;;;;348012;27;96898;-91
2021/11/15 00:46:45;;;;;;;;;;;9.30;99.90;9.70;99671.00;;;;346079;28;83411;-91
2021/11/15 00:46:57;;;;;;;;;;;9.30;99.90;9.70;99676.00;;;;343812;28;96944;-91
2021/11/15 00:47:09;;;;;;;;;;;9.30;99.90;9.70;99674.00;;;;345982;28;82322;-91
2021/11/15 00:47:21;;;;;;;;;;;9.30;99.90;9.70;99671.00;;;;348195;27;95579;-91
2021/11/15 00:47:32;;;;;;;;;;;9.30;99.90;9.70;99666.00;;;;347038;28;83517;-92
2021/11/15 00:47:44;;;;;;;;;;;9.30;99.90;9.70;99677.00;;;;346491;27;96363;-91
2021/11/15 00:47:56;;;;;;;;;;;9.30;99.90;9.80;99672.00;;;;347359;28;82496;-91
2021/11/15 00:48:09;;;;;;;;;;;9.30;99.90;9.70;99670.00;;;;346687;28;95584;-91
2021/11/15 00:48:21;;;;;;;;;;;9.30;99.90;9.70;99676.00;;;;348783;27;83389;-91
2021/11/15 00:48:33;;;;;;;;;;;9.30;99.90;9.70;99678.00;;;;345280;28;95630;-92
2021/11/15 00:48:45;;;;;;;;;;;9.30;99.90;9.70;99675.00;;;;347468;28;82363;-91
2021/11/15 00:48:57;;;;;;;;;;;9.30;99.90;9.70;99673.00;;;;343767;28;96303;-91
2021/11/15 00:49:08;;;;;;;;;;;9.30;99.90;9.70;99678.00;;;;346037;28;82501;-91
2021/11/15 00:49:20;;;;;;;;;;;9.30;99.90;9.70;99674.00;;;;346700;28;94953;-91
2021/11/15 00:49:32;;;;;;;;;;;9.30;99.90;9.70;99678.00;;;;346094;28;83243;-91
2021/11/15 00:49:44;;;;;;;;;;;9.30;99.90;9.70;99661.00;;;;346423;27;96337;-91
2021/11/15 00:49:56;;;;;;;;;;;9.30;99.90;9.80;99668.00;;;;346088;28;82470;-92
2021/11/15 00:50:10;;;;;;;;;;;9.30;99.90;9.80;99669.00;;;;343948;28;95567;-91
2021/11/15 00:50:22;;;;;;;;;;;9.30;99.90;9.80;99669.00;;;;345945;28;83515;-91
2021/11/15 00:50:34;;;;;;;;;;;9.30;99.90;9.70;99670.00;;;;346570;28;97070;-91
2021/11/15 00:50:46;;;;;;;;;;;9.30;99.90;9.70;99675.00;;;;345926;28;83499;-91
2021/11/15 00:50:57;;;;;;;;;;;9.30;99.90;9.70;99669.00;;;;345751;28;96877;-92
2021/11/15 00:51:09;;;;;;;;;;;9.30;99.90;9.60;99670.00;;;;348971;27;82515;-91
2021/11/15 00:51:24;;;;;;;;;;;9.30;99.90;9.70;99664.00;;;;346686;28;95520;-91
2021/11/15 00:51:36;;;;;;;;;;;9.30;99.90;9.70;99666.00;;;;346027;28;83367;-92
2021/11/15 00:51:47;;;;;;;;;;;9.30;99.90;9.70;99663.00;;;;346651;27;95392;-91
2021/11/15 00:51:59;;;;;;;;;;;9.30;99.90;9.70;99660.00;;;;347441;28;83132;-91
2021/11/15 00:52:11;;;;;;;;;;;9.30;99.90;9.70;99666.00;;;;346698;28;95488;-91
2021/11/15 00:52:23;;;;;;;;;;;9.30;99.90;9.70;99668.00;;;;347339;28;83368;-91
2021/11/15 00:52:35;;;;;;;;;;;9.30;99.90;9.80;99661.00;;;;346630;28;96628;-91
2021/11/15 00:52:47;;;;;;;;;;;9.30;99.90;9.80;99667.00;;;;343259;28;83302;-91
2021/11/15 00:52:59;;;;;;;;;;;9.30;99.90;9.80;99670.00;;;;343863;28;96789;-92
2021/11/15 00:53:11;;;;;;;;;;;9.30;99.90;9.80;99665.00;;;;344745;28;82548;-91
2021/11/15 00:53:23;;;;;;;;;;;9.30;99.90;9.80;99668.00;;;;346628;27;95987;-91
2021/11/15 00:53:34;;;;;;;;;;;9.30;99.90;9.80;99668.00;;;;349267;27;83434;-91
2021/11/15 00:53:46;;;;;;;;;;;9.30;99.90;9.80;99670.00;;;;347699;27;96653;-91
2021/11/15 00:53:58;;;;;;;;;;;9.30;99.90;9.60;99667.00;;;;347482;28;82543;-89
2021/11/15 00:54:10;;;;;;;;;;;9.30;99.90;9.60;99663.00;;;;345195;28;96422;-91
2021/11/15 00:54:22;;;;;;;;;;;9.30;99.90;9.60;99666.00;;;;345957;28;82503;-91
2021/11/15 00:54:34;;;;;;;;;;;9.30;99.90;9.70;99664.00;;;;346510;28;96517;-91
2021/11/15 00:54:46;;;;;;;;;;;9.30;99.90;9.80;99667.00;;;;347412;28;83592;-91
2021/11/15 00:54:58;;;;;;;;;;;9.30;99.90;9.70;99669.00;;;;343911;28;96149;-91
2021/11/15 00:55:10;;;;;;;;;;;9.30;99.90;9.70;99660.00;;;;347404;27;83497;-91
2021/11/15 00:55:21;;;;;;;;;;;9.30;99.90;9.70;99664.00;;;;345347;28;94746;-91
2021/11/15 00:55:34;;;;;;;;;;;9.30;99.90;9.70;99664.00;;;;347483;28;82444;-91
2021/11/15 00:55:46;;;;;;;;;;;9.30;99.90;9.80;99671.00;;;;345187;28;96463;-91
2021/11/15 00:55:58;;;;;;;;;;;9.30;99.90;9.80;99673.00;;;;346191;28;83317;-91
2021/11/15 00:56:10;;;;;;;;;;;9.30;99.90;9.70;99660.00;;;;346748;28;95558;-91
2021/11/15 00:56:21;;;;;;;;;;;9.30;99.90;9.70;99665.00;;;;344387;28;83535;-91
2021/11/15 00:56:33;;;;;;;;;;;9.30;99.90;9.80;99674.00;;;;344517;28;95273;-91
2021/11/15 00:56:45;;;;;;;;;;;9.30;99.90;9.80;99673.00;;;;346065;28;83444;-91
2021/11/15 00:56:57;;;;;;;;;;;9.30;99.90;9.80;99661.00;;;;346387;28;97076;-91
2021/11/15 00:57:10;;;;;;;;;;;9.30;99.90;9.80;99676.00;;;;347378;28;83504;-91
2021/11/15 00:57:22;;;;;;;;;;;9.30;99.90;9.80;99665.00;;;;348073;27;94962;-91
2021/11/15 00:57:34;;;;;;;;;;;9.30;99.90;9.80;99666.00;;;;348731;27;83449;-91
2021/11/15 00:57:46;;;;;;;;;;;9.30;99.90;9.80;99665.00;;;;345178;28;97631;-91
2021/11/15 00:57:58;;;;;;;;;;;9.30;99.90;9.80;99674.00;;;;347477;28;83460;-92
2021/11/15 00:58:10;;;;;;;;;;;9.40;99.90;9.70;99657.00;;;;346752;28;94847;-91
2021/11/15 00:58:22;;;;;;;;;;;9.30;99.90;9.70;99663.00;;;;344577;28;83502;-91
2021/11/15 00:58:34;;;;;;;;;;;9.30;99.90;9.70;99664.00;;;;345264;28;96522;-91
2021/11/15 00:58:46;;;;;;;;;;;9.40;99.90;9.70;99667.00;;;;344727;28;83449;-91
2021/11/15 00:58:58;;;;;;;;;;;9.30;99.90;9.80;99673.00;;;;346382;28;95630;-91
2021/11/15 00:59:10;;;;;;;;;;;9.30;99.90;9.70;99662.00;;;;346025;28;83484;-91
2021/11/15 00:59:21;;;;;;;;;;;9.40;99.90;9.80;99664.00;;;;347717;27;95092;-91
2021/11/15 00:59:33;;;;;;;;;;;9.30;99.90;9.80;99670.00;;;;347249;28;83430;-91
2021/11/15 00:59:45;;;;;;;;;;;9.30;99.90;9.80;99666.00;;;;345103;28;96986;-91
2021/11/15 00:59:57;;;;;;;;;;;9.40;99.90;9.80;99665.00;;;;347325;28;83462;-92
2021/11/15 01:00:12;;;;;;;;;;;9.30;99.90;9.80;99670.00;;;;345239;28;96358;-91
2021/11/15 01:00:25;;;;;;;;;;;9.30;99.90;9.70;99662.00;;;;348781;27;83240;-91
2021/11/15 01:00:38;;;;;;;;;;;9.30;99.90;9.80;99670.00;;;;345285;28;96990;-91
2021/11/15 01:00:50;;;;;;;;;;;9.30;99.90;9.80;99664.00;;;;346092;28;83375;-91
2021/11/15 01:01:02;;;;;;;;;;;9.30;99.90;9.70;99673.00;;;;345231;28;96807;-91